sensor_id;sensor_type;location;lat;lon;timestamp;P1;durP1;ratioP1;P2;durP2;ratioP2
70549;SDS011;58101;48.658;2.328;2023-10-08T00:00:27;14.55;;;6.38;;
70549;SDS011;58101;48.658;2.328;2023-10-08T00:03:08;15.02;;;6.53;;
70549;SDS011;58101;48.658;2.328;2023-10-08T00:05:36;15.10;;;6.63;;
70549;SDS011;58101;48.658;2.328;2023-10-08T00:08:02;16.48;;;5.85;;
70549;SDS011;58101;48.658;2.328;2023-10-08T00:10:33;15.30;;;6.20;;
70549;SDS011;58101;48.658;2.328;2023-10-08T00:13:05;14.82;;;6.15;;
70549;SDS011;58101;48.658;2.328;2023-10-08T00:15:37;16.63;;;6.57;;
70549;SDS011;58101;48.658;2.328;2023-10-08T00:18:14;16.05;;;6.28;;
70549;SDS011;58101;48.658;2.328;2023-10-08T00:20:40;13.82;;;6.18;;
70549;SDS011;58101;48.658;2.328;2023-10-08T00:23:31;15.05;;;6.10;;
70549;SDS011;58101;48.658;2.328;2023-10-08T00:26:00;15.82;;;5.90;;
70549;SDS011;58101;48.658;2.328;2023-10-08T00:28:29;15.55;;;6.10;;
70549;SDS011;58101;48.658;2.328;2023-10-08T00:30:56;14.75;;;6.00;;
70549;SDS011;58101;48.658;2.328;2023-10-08T00:33:22;15.88;;;6.10;;
70549;SDS011;58101;48.658;2.328;2023-10-08T00:35:49;12.63;;;5.90;;
70549;SDS011;58101;48.658;2.328;2023-10-08T00:38:15;13.52;;;6.10;;
70549;SDS011;58101;48.658;2.328;2023-10-08T00:40:41;14.15;;;5.90;;
70549;SDS011;58101;48.658;2.328;2023-10-08T00:43:28;14.82;;;6.45;;
70549;SDS011;58101;48.658;2.328;2023-10-08T00:45:56;14.57;;;6.07;;
70549;SDS011;58101;48.658;2.328;2023-10-08T00:48:24;17.25;;;6.55;;
70549;SDS011;58101;48.658;2.328;2023-10-08T00:50:57;14.95;;;5.68;;
70549;SDS011;58101;48.658;2.328;2023-10-08T00:53:35;16.55;;;6.15;;
70549;SDS011;58101;48.658;2.328;2023-10-08T00:56:05;13.45;;;5.70;;
70549;SDS011;58101;48.658;2.328;2023-10-08T00:58:39;13.07;;;5.88;;
70549;SDS011;58101;48.658;2.328;2023-10-08T01:01:05;15.07;;;5.57;;
70549;SDS011;58101;48.658;2.328;2023-10-08T01:03:35;14.30;;;6.22;;
70549;SDS011;58101;48.658;2.328;2023-10-08T01:06:01;12.80;;;5.63;;
70549;SDS011;58101;48.658;2.328;2023-10-08T01:08:29;17.38;;;6.07;;
70549;SDS011;58101;48.658;2.328;2023-10-08T01:11:19;16.10;;;6.15;;
70549;SDS011;58101;48.658;2.328;2023-10-08T01:14:11;12.30;;;5.72;;
70549;SDS011;58101;48.658;2.328;2023-10-08T01:16:37;14.05;;;5.82;;
70549;SDS011;58101;48.658;2.328;2023-10-08T01:19:04;14.20;;;5.97;;
70549;SDS011;58101;48.658;2.328;2023-10-08T01:21:30;14.32;;;5.78;;
70549;SDS011;58101;48.658;2.328;2023-10-08T01:24:04;12.80;;;5.55;;
70549;SDS011;58101;48.658;2.328;2023-10-08T01:26:34;16.58;;;5.90;;
70549;SDS011;58101;48.658;2.328;2023-10-08T01:29:04;12.70;;;5.63;;
70549;SDS011;58101;48.658;2.328;2023-10-08T01:31:33;13.65;;;5.78;;
70549;SDS011;58101;48.658;2.328;2023-10-08T01:33:59;13.13;;;5.55;;
70549;SDS011;58101;48.658;2.328;2023-10-08T01:36:26;14.65;;;5.70;;
70549;SDS011;58101;48.658;2.328;2023-10-08T01:38:51;15.48;;;5.80;;
70549;SDS011;58101;48.658;2.328;2023-10-08T01:41:18;13.60;;;5.80;;
70549;SDS011;58101;48.658;2.328;2023-10-08T01:43:44;12.48;;;5.35;;
70549;SDS011;58101;48.658;2.328;2023-10-08T01:46:17;13.45;;;6.00;;
70549;SDS011;58101;48.658;2.328;2023-10-08T01:48:46;14.18;;;6.13;;
70549;SDS011;58101;48.658;2.328;2023-10-08T01:51:15;12.57;;;5.38;;
70549;SDS011;58101;48.658;2.328;2023-10-08T01:53:51;14.85;;;5.68;;
70549;SDS011;58101;48.658;2.328;2023-10-08T01:56:23;13.70;;;6.00;;
70549;SDS011;58101;48.658;2.328;2023-10-08T01:58:49;13.90;;;5.45;;
70549;SDS011;58101;48.658;2.328;2023-10-08T02:01:19;14.15;;;5.43;;
70549;SDS011;58101;48.658;2.328;2023-10-08T02:03:45;14.50;;;5.72;;
70549;SDS011;58101;48.658;2.328;2023-10-08T02:06:11;12.45;;;5.22;;
70549;SDS011;58101;48.658;2.328;2023-10-08T02:08:37;12.93;;;5.32;;
70549;SDS011;58101;48.658;2.328;2023-10-08T02:11:03;12.30;;;5.45;;
70549;SDS011;58101;48.658;2.328;2023-10-08T02:13:29;13.45;;;5.90;;
70549;SDS011;58101;48.658;2.328;2023-10-08T02:15:55;15.43;;;5.50;;
70549;SDS011;58101;48.658;2.328;2023-10-08T02:18:21;13.82;;;5.82;;
70549;SDS011;58101;48.658;2.328;2023-10-08T02:20:50;14.30;;;5.93;;
70549;SDS011;58101;48.658;2.328;2023-10-08T02:23:17;14.02;;;5.55;;
70549;SDS011;58101;48.658;2.328;2023-10-08T02:25:43;14.48;;;5.32;;
70549;SDS011;58101;48.658;2.328;2023-10-08T02:28:09;15.05;;;5.88;;
70549;SDS011;58101;48.658;2.328;2023-10-08T02:30:40;14.23;;;5.82;;
70549;SDS011;58101;48.658;2.328;2023-10-08T02:33:06;11.60;;;5.40;;
70549;SDS011;58101;48.658;2.328;2023-10-08T02:35:44;13.43;;;5.40;;
70549;SDS011;58101;48.658;2.328;2023-10-08T02:38:12;12.55;;;5.40;;
70549;SDS011;58101;48.658;2.328;2023-10-08T02:40:41;14.27;;;5.63;;
70549;SDS011;58101;48.658;2.328;2023-10-08T02:43:11;13.77;;;5.70;;
70549;SDS011;58101;48.658;2.328;2023-10-08T02:45:39;13.93;;;5.70;;
70549;SDS011;58101;48.658;2.328;2023-10-08T02:48:06;12.23;;;5.57;;
70549;SDS011;58101;48.658;2.328;2023-10-08T02:50:37;13.32;;;5.35;;
70549;SDS011;58101;48.658;2.328;2023-10-08T02:53:07;14.55;;;5.43;;
70549;SDS011;58101;48.658;2.328;2023-10-08T02:55:38;13.75;;;5.40;;
70549;SDS011;58101;48.658;2.328;2023-10-08T02:58:09;12.40;;;5.40;;
70549;SDS011;58101;48.658;2.328;2023-10-08T03:00:40;14.75;;;5.80;;
70549;SDS011;58101;48.658;2.328;2023-10-08T03:03:11;13.95;;;5.43;;
70549;SDS011;58101;48.658;2.328;2023-10-08T03:05:44;13.68;;;5.53;;
70549;SDS011;58101;48.658;2.328;2023-10-08T03:08:12;13.93;;;5.53;;
70549;SDS011;58101;48.658;2.328;2023-10-08T03:10:40;12.98;;;5.38;;
70549;SDS011;58101;48.658;2.328;2023-10-08T03:13:06;13.40;;;5.30;;
70549;SDS011;58101;48.658;2.328;2023-10-08T03:15:35;15.40;;;5.60;;
70549;SDS011;58101;48.658;2.328;2023-10-08T03:18:11;12.90;;;5.15;;
70549;SDS011;58101;48.658;2.328;2023-10-08T03:20:40;15.13;;;5.05;;
70549;SDS011;58101;48.658;2.328;2023-10-08T03:23:12;12.82;;;5.30;;
70549;SDS011;58101;48.658;2.328;2023-10-08T03:25:54;13.38;;;5.15;;
70549;SDS011;58101;48.658;2.328;2023-10-08T03:28:41;13.77;;;5.20;;
70549;SDS011;58101;48.658;2.328;2023-10-08T03:31:06;15.57;;;5.07;;
70549;SDS011;58101;48.658;2.328;2023-10-08T03:33:42;12.90;;;4.93;;
70549;SDS011;58101;48.658;2.328;2023-10-08T03:36:14;11.10;;;4.70;;
70549;SDS011;58101;48.658;2.328;2023-10-08T03:38:46;11.73;;;4.70;;
70549;SDS011;58101;48.658;2.328;2023-10-08T03:41:25;12.50;;;4.80;;
70549;SDS011;58101;48.658;2.328;2023-10-08T03:43:54;12.15;;;4.43;;
70549;SDS011;58101;48.658;2.328;2023-10-08T03:46:27;11.27;;;4.43;;
70549;SDS011;58101;48.658;2.328;2023-10-08T03:48:57;10.57;;;4.72;;
70549;SDS011;58101;48.658;2.328;2023-10-08T03:51:29;13.68;;;5.13;;
70549;SDS011;58101;48.658;2.328;2023-10-08T03:53:55;12.32;;;4.55;;
70549;SDS011;58101;48.658;2.328;2023-10-08T03:56:41;11.27;;;4.22;;
70549;SDS011;58101;48.658;2.328;2023-10-08T03:59:19;12.70;;;4.53;;
70549;SDS011;58101;48.658;2.328;2023-10-08T04:02:05;13.95;;;4.05;;
70549;SDS011;58101;48.658;2.328;2023-10-08T04:04:47;12.00;;;4.43;;
70549;SDS011;58101;48.658;2.328;2023-10-08T04:07:18;12.00;;;4.40;;
70549;SDS011;58101;48.658;2.328;2023-10-08T04:10:03;10.98;;;4.47;;
70549;SDS011;58101;48.658;2.328;2023-10-08T04:12:34;11.25;;;4.18;;
70549;SDS011;58101;48.658;2.328;2023-10-08T04:15:01;11.02;;;4.35;;
70549;SDS011;58101;48.658;2.328;2023-10-08T04:17:32;12.73;;;4.25;;
70549;SDS011;58101;48.658;2.328;2023-10-08T04:20:08;12.50;;;4.18;;
70549;SDS011;58101;48.658;2.328;2023-10-08T04:23:02;10.65;;;4.13;;
70549;SDS011;58101;48.658;2.328;2023-10-08T04:25:43;10.13;;;4.18;;
70549;SDS011;58101;48.658;2.328;2023-10-08T04:28:08;11.27;;;4.03;;
70549;SDS011;58101;48.658;2.328;2023-10-08T04:30:39;11.70;;;4.45;;
70549;SDS011;58101;48.658;2.328;2023-10-08T04:33:07;10.77;;;4.32;;
70549;SDS011;58101;48.658;2.328;2023-10-08T04:35:36;10.45;;;4.28;;
70549;SDS011;58101;48.658;2.328;2023-10-08T04:38:24;10.13;;;4.03;;
70549;SDS011;58101;48.658;2.328;2023-10-08T04:40:51;11.20;;;4.30;;
70549;SDS011;58101;48.658;2.328;2023-10-08T04:43:18;10.20;;;4.03;;
70549;SDS011;58101;48.658;2.328;2023-10-08T04:45:53;9.65;;;3.80;;
70549;SDS011;58101;48.658;2.328;2023-10-08T04:48:21;9.77;;;4.15;;
70549;SDS011;58101;48.658;2.328;2023-10-08T04:50:49;11.43;;;4.32;;
70549;SDS011;58101;48.658;2.328;2023-10-08T04:53:27;9.95;;;4.25;;
70549;SDS011;58101;48.658;2.328;2023-10-08T04:56:00;12.65;;;4.32;;
70549;SDS011;58101;48.658;2.328;2023-10-08T04:58:34;10.23;;;4.05;;
70549;SDS011;58101;48.658;2.328;2023-10-08T05:01:02;10.48;;;3.63;;
70549;SDS011;58101;48.658;2.328;2023-10-08T05:03:52;8.98;;;4.00;;
70549;SDS011;58101;48.658;2.328;2023-10-08T05:06:26;11.50;;;4.53;;
70549;SDS011;58101;48.658;2.328;2023-10-08T05:09:02;12.35;;;4.30;;
70549;SDS011;58101;48.658;2.328;2023-10-08T05:11:47;11.32;;;4.07;;
70549;SDS011;58101;48.658;2.328;2023-10-08T05:14:15;10.60;;;4.25;;
70549;SDS011;58101;48.658;2.328;2023-10-08T05:17:00;11.15;;;4.00;;
70549;SDS011;58101;48.658;2.328;2023-10-08T05:22:32;14.02;;;4.38;;
70549;SDS011;58101;48.658;2.328;2023-10-08T05:24:58;11.40;;;4.07;;
70549;SDS011;58101;48.658;2.328;2023-10-08T05:27:41;10.00;;;4.00;;
70549;SDS011;58101;48.658;2.328;2023-10-08T05:30:15;9.57;;;3.55;;
70549;SDS011;58101;48.658;2.328;2023-10-08T05:32:50;9.20;;;3.78;;
70549;SDS011;58101;48.658;2.328;2023-10-08T05:35:28;9.82;;;3.95;;
70549;SDS011;58101;48.658;2.328;2023-10-08T05:38:15;13.32;;;4.82;;
70549;SDS011;58101;48.658;2.328;2023-10-08T05:40:47;11.00;;;4.15;;
70549;SDS011;58101;48.658;2.328;2023-10-08T05:43:27;10.82;;;4.07;;
70549;SDS011;58101;48.658;2.328;2023-10-08T05:46:06;13.85;;;4.07;;
70549;SDS011;58101;48.658;2.328;2023-10-08T05:51:46;11.10;;;4.22;;
70549;SDS011;58101;48.658;2.328;2023-10-08T05:54:15;10.20;;;3.50;;
70549;SDS011;58101;48.658;2.328;2023-10-08T05:57:04;9.95;;;3.83;;
70549;SDS011;58101;48.658;2.328;2023-10-08T05:59:39;10.80;;;4.22;;
70549;SDS011;58101;48.658;2.328;2023-10-08T06:02:23;10.07;;;3.85;;
70549;SDS011;58101;48.658;2.328;2023-10-08T06:05:08;10.18;;;4.30;;
70549;SDS011;58101;48.658;2.328;2023-10-08T06:10:20;9.32;;;3.58;;
70549;SDS011;58101;48.658;2.328;2023-10-08T06:12:57;11.68;;;4.13;;
70549;SDS011;58101;48.658;2.328;2023-10-08T06:15:39;10.75;;;3.95;;
70549;SDS011;58101;48.658;2.328;2023-10-08T06:18:23;11.80;;;4.35;;
70549;SDS011;58101;48.658;2.328;2023-10-08T06:23:28;11.32;;;4.43;;
70549;SDS011;58101;48.658;2.328;2023-10-08T06:26:12;9.43;;;4.20;;
70549;SDS011;58101;48.658;2.328;2023-10-08T06:28:46;11.25;;;4.18;;
70549;SDS011;58101;48.658;2.328;2023-10-08T06:31:11;10.45;;;4.28;;
70549;SDS011;58101;48.658;2.328;2023-10-08T06:33:41;11.93;;;4.38;;
70549;SDS011;58101;48.658;2.328;2023-10-08T06:36:07;11.52;;;3.90;;
70549;SDS011;58101;48.658;2.328;2023-10-08T06:38:36;10.63;;;4.22;;
70549;SDS011;58101;48.658;2.328;2023-10-08T06:41:03;10.70;;;3.90;;
70549;SDS011;58101;48.658;2.328;2023-10-08T06:43:39;12.95;;;4.30;;
70549;SDS011;58101;48.658;2.328;2023-10-08T06:46:14;15.32;;;4.85;;
70549;SDS011;58101;48.658;2.328;2023-10-08T06:48:44;9.35;;;3.97;;
70549;SDS011;58101;48.658;2.328;2023-10-08T06:51:14;12.18;;;4.32;;
70549;SDS011;58101;48.658;2.328;2023-10-08T06:53:43;10.50;;;4.05;;
70549;SDS011;58101;48.658;2.328;2023-10-08T06:56:10;10.68;;;4.03;;
70549;SDS011;58101;48.658;2.328;2023-10-08T06:58:37;10.85;;;4.07;;
70549;SDS011;58101;48.658;2.328;2023-10-08T07:01:04;9.45;;;3.70;;
70549;SDS011;58101;48.658;2.328;2023-10-08T07:03:30;10.35;;;3.95;;
70549;SDS011;58101;48.658;2.328;2023-10-08T07:05:58;10.32;;;3.65;;
70549;SDS011;58101;48.658;2.328;2023-10-08T07:08:41;9.07;;;3.80;;
70549;SDS011;58101;48.658;2.328;2023-10-08T07:13:36;9.80;;;4.03;;
70549;SDS011;58101;48.658;2.328;2023-10-08T07:16:04;10.98;;;4.18;;
70549;SDS011;58101;48.658;2.328;2023-10-08T07:18:36;11.07;;;4.18;;
70549;SDS011;58101;48.658;2.328;2023-10-08T07:21:02;11.55;;;4.05;;
70549;SDS011;58101;48.658;2.328;2023-10-08T07:23:29;13.32;;;4.75;;
70549;SDS011;58101;48.658;2.328;2023-10-08T07:26:02;13.88;;;5.47;;
70549;SDS011;58101;48.658;2.328;2023-10-08T07:28:37;11.95;;;5.35;;
70549;SDS011;58101;48.658;2.328;2023-10-08T07:31:05;10.45;;;4.18;;
70549;SDS011;58101;48.658;2.328;2023-10-08T07:33:48;12.57;;;4.40;;
70549;SDS011;58101;48.658;2.328;2023-10-08T07:36:25;10.63;;;4.07;;
70549;SDS011;58101;48.658;2.328;2023-10-08T07:38:52;11.70;;;3.92;;
70549;SDS011;58101;48.658;2.328;2023-10-08T07:41:18;9.90;;;4.13;;
70549;SDS011;58101;48.658;2.328;2023-10-08T07:46:11;9.82;;;3.63;;
70549;SDS011;58101;48.658;2.328;2023-10-08T07:48:40;9.95;;;3.60;;
70549;SDS011;58101;48.658;2.328;2023-10-08T07:51:08;11.45;;;4.00;;
70549;SDS011;58101;48.658;2.328;2023-10-08T07:53:34;10.75;;;4.00;;
70549;SDS011;58101;48.658;2.328;2023-10-08T07:56:07;8.77;;;3.85;;
70549;SDS011;58101;48.658;2.328;2023-10-08T07:58:34;8.98;;;3.92;;
70549;SDS011;58101;48.658;2.328;2023-10-08T08:01:06;9.73;;;3.85;;
70549;SDS011;58101;48.658;2.328;2023-10-08T08:03:38;9.25;;;3.67;;
70549;SDS011;58101;48.658;2.328;2023-10-08T08:06:08;9.98;;;3.70;;
70549;SDS011;58101;48.658;2.328;2023-10-08T08:08:37;11.27;;;3.72;;
70549;SDS011;58101;48.658;2.328;2023-10-08T08:11:04;9.00;;;3.47;;
70549;SDS011;58101;48.658;2.328;2023-10-08T08:13:37;10.57;;;3.72;;
70549;SDS011;58101;48.658;2.328;2023-10-08T08:16:11;9.23;;;3.65;;
70549;SDS011;58101;48.658;2.328;2023-10-08T08:21:23;9.05;;;3.20;;
70549;SDS011;58101;48.658;2.328;2023-10-08T08:23:50;9.73;;;3.53;;
70549;SDS011;58101;48.658;2.328;2023-10-08T08:26:18;8.27;;;3.35;;
70549;SDS011;58101;48.658;2.328;2023-10-08T08:28:55;10.60;;;3.40;;
70549;SDS011;58101;48.658;2.328;2023-10-08T08:31:24;9.98;;;3.38;;
70549;SDS011;58101;48.658;2.328;2023-10-08T08:33:50;8.75;;;3.33;;
70549;SDS011;58101;48.658;2.328;2023-10-08T08:36:21;9.88;;;3.60;;
70549;SDS011;58101;48.658;2.328;2023-10-08T08:38:50;9.70;;;3.28;;
70549;SDS011;58101;48.658;2.328;2023-10-08T08:41:16;10.50;;;3.38;;
70549;SDS011;58101;48.658;2.328;2023-10-08T08:43:49;9.05;;;3.33;;
70549;SDS011;58101;48.658;2.328;2023-10-08T08:46:30;10.20;;;3.20;;
70549;SDS011;58101;48.658;2.328;2023-10-08T08:48:57;9.70;;;3.45;;
70549;SDS011;58101;48.658;2.328;2023-10-08T08:51:28;8.70;;;3.30;;
70549;SDS011;58101;48.658;2.328;2023-10-08T08:53:55;8.32;;;3.50;;
70549;SDS011;58101;48.658;2.328;2023-10-08T08:56:20;9.63;;;3.45;;
70549;SDS011;58101;48.658;2.328;2023-10-08T08:58:47;10.25;;;3.45;;
70549;SDS011;58101;48.658;2.328;2023-10-08T09:01:14;9.75;;;3.25;;
70549;SDS011;58101;48.658;2.328;2023-10-08T09:03:42;10.70;;;3.30;;
70549;SDS011;58101;48.658;2.328;2023-10-08T09:06:08;8.85;;;3.28;;
70549;SDS011;58101;48.658;2.328;2023-10-08T09:08:36;8.55;;;3.33;;
70549;SDS011;58101;48.658;2.328;2023-10-08T09:11:02;8.70;;;3.35;;
70549;SDS011;58101;48.658;2.328;2023-10-08T09:13:33;10.15;;;3.15;;
70549;SDS011;58101;48.658;2.328;2023-10-08T09:18:33;9.20;;;3.03;;
70549;SDS011;58101;48.658;2.328;2023-10-08T09:21:09;9.48;;;3.50;;
70549;SDS011;58101;48.658;2.328;2023-10-08T09:23:40;8.70;;;3.15;;
70549;SDS011;58101;48.658;2.328;2023-10-08T09:26:10;8.73;;;3.05;;
70549;SDS011;58101;48.658;2.328;2023-10-08T09:28:38;9.38;;;3.22;;
70549;SDS011;58101;48.658;2.328;2023-10-08T09:31:06;9.45;;;3.08;;
70549;SDS011;58101;48.658;2.328;2023-10-08T09:33:36;7.97;;;3.08;;
70549;SDS011;58101;48.658;2.328;2023-10-08T09:36:02;7.63;;;2.97;;
70549;SDS011;58101;48.658;2.328;2023-10-08T09:38:32;8.80;;;2.92;;
70549;SDS011;58101;48.658;2.328;2023-10-08T09:40:59;7.85;;;2.70;;
70549;SDS011;58101;48.658;2.328;2023-10-08T09:43:28;6.57;;;2.70;;
70549;SDS011;58101;48.658;2.328;2023-10-08T09:46:03;9.15;;;2.78;;
70549;SDS011;58101;48.658;2.328;2023-10-08T09:48:41;7.53;;;2.72;;
70549;SDS011;58101;48.658;2.328;2023-10-08T09:51:10;7.00;;;2.45;;
70549;SDS011;58101;48.658;2.328;2023-10-08T09:56:20;8.55;;;2.75;;
70549;SDS011;58101;48.658;2.328;2023-10-08T09:58:49;7.45;;;2.72;;
70549;SDS011;58101;48.658;2.328;2023-10-08T10:01:16;7.15;;;2.38;;
70549;SDS011;58101;48.658;2.328;2023-10-08T10:03:44;7.45;;;2.90;;
70549;SDS011;58101;48.658;2.328;2023-10-08T10:06:14;7.55;;;2.65;;
70549;SDS011;58101;48.658;2.328;2023-10-08T10:08:42;7.68;;;2.50;;
70549;SDS011;58101;48.658;2.328;2023-10-08T10:11:08;7.20;;;2.60;;
70549;SDS011;58101;48.658;2.328;2023-10-08T10:13:39;8.35;;;2.78;;
70549;SDS011;58101;48.658;2.328;2023-10-08T10:18:34;8.15;;;2.67;;
70549;SDS011;58101;48.658;2.328;2023-10-08T10:23:47;8.63;;;2.70;;
70549;SDS011;58101;48.658;2.328;2023-10-08T10:31:35;9.85;;;2.83;;
70549;SDS011;58101;48.658;2.328;2023-10-08T10:34:10;9.32;;;2.95;;
70549;SDS011;58101;48.658;2.328;2023-10-08T10:36:40;8.57;;;2.90;;
70549;SDS011;58101;48.658;2.328;2023-10-08T10:39:06;8.85;;;3.08;;
70549;SDS011;58101;48.658;2.328;2023-10-08T10:41:41;8.32;;;2.85;;
70549;SDS011;58101;48.658;2.328;2023-10-08T10:44:11;9.98;;;2.88;;
70549;SDS011;58101;48.658;2.328;2023-10-08T10:46:38;8.02;;;2.75;;
70549;SDS011;58101;48.658;2.328;2023-10-08T10:49:07;7.85;;;2.80;;
70549;SDS011;58101;48.658;2.328;2023-10-08T10:51:49;8.32;;;2.70;;
70549;SDS011;58101;48.658;2.328;2023-10-08T10:54:17;7.50;;;2.75;;
70549;SDS011;58101;48.658;2.328;2023-10-08T10:56:48;8.82;;;3.03;;
70549;SDS011;58101;48.658;2.328;2023-10-08T10:59:31;10.70;;;3.85;;
70549;SDS011;58101;48.658;2.328;2023-10-08T11:02:03;7.43;;;2.70;;
70549;SDS011;58101;48.658;2.328;2023-10-08T11:04:55;11.20;;;3.45;;
70549;SDS011;58101;48.658;2.328;2023-10-08T11:07:32;8.75;;;3.55;;
70549;SDS011;58101;48.658;2.328;2023-10-08T11:09:59;7.25;;;2.85;;
70549;SDS011;58101;48.658;2.328;2023-10-08T11:12:25;7.40;;;2.65;;
70549;SDS011;58101;48.658;2.328;2023-10-08T11:15:08;7.57;;;2.80;;
70549;SDS011;58101;48.658;2.328;2023-10-08T11:17:40;7.43;;;2.90;;
70549;SDS011;58101;48.658;2.328;2023-10-08T11:20:22;8.07;;;2.83;;
70549;SDS011;58101;48.658;2.328;2023-10-08T11:22:51;8.52;;;2.38;;
70549;SDS011;58101;48.658;2.328;2023-10-08T11:25:22;8.15;;;2.90;;
70549;SDS011;58101;48.658;2.328;2023-10-08T11:27:54;6.32;;;2.40;;
70549;SDS011;58101;48.658;2.328;2023-10-08T11:30:27;6.43;;;2.50;;
70549;SDS011;58101;48.658;2.328;2023-10-08T11:32:57;7.68;;;2.67;;
70549;SDS011;58101;48.658;2.328;2023-10-08T11:35:24;8.30;;;2.70;;
70549;SDS011;58101;48.658;2.328;2023-10-08T11:37:52;7.07;;;2.80;;
70549;SDS011;58101;48.658;2.328;2023-10-08T11:40:23;7.82;;;2.83;;
70549;SDS011;58101;48.658;2.328;2023-10-08T11:43:10;9.07;;;3.00;;
70549;SDS011;58101;48.658;2.328;2023-10-08T11:45:41;8.23;;;2.47;;
70549;SDS011;58101;48.658;2.328;2023-10-08T11:48:13;6.95;;;2.30;;
70549;SDS011;58101;48.658;2.328;2023-10-08T11:50:42;8.80;;;2.50;;
70549;SDS011;58101;48.658;2.328;2023-10-08T11:53:08;7.07;;;2.65;;
70549;SDS011;58101;48.658;2.328;2023-10-08T11:55:36;7.70;;;3.00;;
70549;SDS011;58101;48.658;2.328;2023-10-08T11:58:04;9.85;;;2.70;;
70549;SDS011;58101;48.658;2.328;2023-10-08T12:00:40;8.05;;;2.30;;
70549;SDS011;58101;48.658;2.328;2023-10-08T12:03:12;7.28;;;2.60;;
70549;SDS011;58101;48.658;2.328;2023-10-08T12:05:43;7.80;;;2.70;;
70549;SDS011;58101;48.658;2.328;2023-10-08T12:08:16;7.72;;;2.50;;
70549;SDS011;58101;48.658;2.328;2023-10-08T12:10:45;6.60;;;2.40;;
70549;SDS011;58101;48.658;2.328;2023-10-08T12:13:11;7.57;;;2.33;;
70549;SDS011;58101;48.658;2.328;2023-10-08T12:15:37;8.98;;;3.00;;
70549;SDS011;58101;48.658;2.328;2023-10-08T12:18:03;7.70;;;2.70;;
70549;SDS011;58101;48.658;2.328;2023-10-08T12:20:48;8.55;;;2.40;;
70549;SDS011;58101;48.658;2.328;2023-10-08T12:23:14;8.57;;;2.38;;
70549;SDS011;58101;48.658;2.328;2023-10-08T12:26:00;6.88;;;2.60;;
70549;SDS011;58101;48.658;2.328;2023-10-08T12:28:28;11.05;;;2.47;;
70549;SDS011;58101;48.658;2.328;2023-10-08T12:30:53;7.57;;;2.10;;
70549;SDS011;58101;48.658;2.328;2023-10-08T12:33:21;9.02;;;2.38;;
70549;SDS011;58101;48.658;2.328;2023-10-08T12:35:49;10.35;;;2.70;;
70549;SDS011;58101;48.658;2.328;2023-10-08T12:38:18;10.15;;;2.17;;
70549;SDS011;58101;48.658;2.328;2023-10-08T12:40:47;10.77;;;2.38;;
70549;SDS011;58101;48.658;2.328;2023-10-08T12:43:17;7.75;;;2.28;;
70549;SDS011;58101;48.658;2.328;2023-10-08T12:45:49;8.10;;;2.42;;
70549;SDS011;58101;48.658;2.328;2023-10-08T12:48:26;7.32;;;2.40;;
70549;SDS011;58101;48.658;2.328;2023-10-08T12:50:55;7.75;;;2.20;;
70549;SDS011;58101;48.658;2.328;2023-10-08T12:53:26;8.38;;;2.20;;
70549;SDS011;58101;48.658;2.328;2023-10-08T12:55:58;8.23;;;2.22;;
70549;SDS011;58101;48.658;2.328;2023-10-08T12:58:31;9.68;;;2.70;;
70549;SDS011;58101;48.658;2.328;2023-10-08T13:01:05;9.15;;;2.30;;
70549;SDS011;58101;48.658;2.328;2023-10-08T13:03:34;8.82;;;2.58;;
70549;SDS011;58101;48.658;2.328;2023-10-08T13:06:06;9.07;;;2.20;;
70549;SDS011;58101;48.658;2.328;2023-10-08T13:08:49;9.38;;;2.03;;
70549;SDS011;58101;48.658;2.328;2023-10-08T13:11:20;8.43;;;2.00;;
70549;SDS011;58101;48.658;2.328;2023-10-08T13:13:50;9.05;;;2.13;;
70549;SDS011;58101;48.658;2.328;2023-10-08T13:16:17;11.88;;;2.38;;
70549;SDS011;58101;48.658;2.328;2023-10-08T13:18:46;6.60;;;1.90;;
70549;SDS011;58101;48.658;2.328;2023-10-08T13:21:12;7.90;;;1.98;;
70549;SDS011;58101;48.658;2.328;2023-10-08T13:23:38;9.52;;;1.83;;
70549;SDS011;58101;48.658;2.328;2023-10-08T13:26:04;8.45;;;1.80;;
70549;SDS011;58101;48.658;2.328;2023-10-08T13:28:32;8.18;;;1.80;;
70549;SDS011;58101;48.658;2.328;2023-10-08T13:30:59;10.48;;;1.98;;
70549;SDS011;58101;48.658;2.328;2023-10-08T13:33:31;7.82;;;2.15;;
70549;SDS011;58101;48.658;2.328;2023-10-08T13:35:57;8.00;;;2.10;;
70549;SDS011;58101;48.658;2.328;2023-10-08T13:38:22;8.70;;;2.22;;
70549;SDS011;58101;48.658;2.328;2023-10-08T13:40:51;7.35;;;2.00;;
70549;SDS011;58101;48.658;2.328;2023-10-08T13:43:34;9.77;;;2.17;;
70549;SDS011;58101;48.658;2.328;2023-10-08T13:48:30;9.18;;;2.17;;
70549;SDS011;58101;48.658;2.328;2023-10-08T13:51:01;8.63;;;2.25;;
70549;SDS011;58101;48.658;2.328;2023-10-08T13:53:29;6.47;;;1.92;;
70549;SDS011;58101;48.658;2.328;2023-10-08T13:55:56;9.30;;;2.00;;
70549;SDS011;58101;48.658;2.328;2023-10-08T13:58:25;9.85;;;2.45;;
70549;SDS011;58101;48.658;2.328;2023-10-08T14:00:53;11.30;;;2.20;;
70549;SDS011;58101;48.658;2.328;2023-10-08T14:03:19;9.18;;;2.20;;
70549;SDS011;58101;48.658;2.328;2023-10-08T14:05:47;10.80;;;2.10;;
70549;SDS011;58101;48.658;2.328;2023-10-08T14:08:18;8.80;;;2.20;;
70549;SDS011;58101;48.658;2.328;2023-10-08T14:10:45;8.32;;;2.22;;
70549;SDS011;58101;48.658;2.328;2023-10-08T14:13:13;11.88;;;2.45;;
70549;SDS011;58101;48.658;2.328;2023-10-08T14:15:44;11.82;;;2.15;;
70549;SDS011;58101;48.658;2.328;2023-10-08T14:18:20;7.78;;;2.00;;
70549;SDS011;58101;48.658;2.328;2023-10-08T14:20:54;8.65;;;2.30;;
70549;SDS011;58101;48.658;2.328;2023-10-08T14:23:20;9.55;;;2.45;;
70549;SDS011;58101;48.658;2.328;2023-10-08T14:25:49;9.40;;;2.15;;
70549;SDS011;58101;48.658;2.328;2023-10-08T14:28:17;13.43;;;2.28;;
70549;SDS011;58101;48.658;2.328;2023-10-08T14:31:05;12.90;;;2.50;;
70549;SDS011;58101;48.658;2.328;2023-10-08T14:33:33;7.82;;;2.10;;
70549;SDS011;58101;48.658;2.328;2023-10-08T14:36:07;8.43;;;2.25;;
70549;SDS011;58101;48.658;2.328;2023-10-08T14:38:52;8.48;;;2.20;;
70549;SDS011;58101;48.658;2.328;2023-10-08T14:41:36;10.88;;;2.35;;
70549;SDS011;58101;48.658;2.328;2023-10-08T14:44:20;9.40;;;1.92;;
70549;SDS011;58101;48.658;2.328;2023-10-08T14:46:46;11.82;;;2.28;;
70549;SDS011;58101;48.658;2.328;2023-10-08T14:49:11;7.00;;;1.88;;
70549;SDS011;58101;48.658;2.328;2023-10-08T14:51:38;13.70;;;2.67;;
70549;SDS011;58101;48.658;2.328;2023-10-08T14:54:05;12.30;;;1.88;;
70549;SDS011;58101;48.658;2.328;2023-10-08T14:56:33;8.40;;;2.10;;
70549;SDS011;58101;48.658;2.328;2023-10-08T14:59:00;9.65;;;2.05;;
70549;SDS011;58101;48.658;2.328;2023-10-08T15:01:26;9.15;;;2.03;;
70549;SDS011;58101;48.658;2.328;2023-10-08T15:03:53;10.43;;;2.42;;
70549;SDS011;58101;48.658;2.328;2023-10-08T15:06:19;10.25;;;2.20;;
70549;SDS011;58101;48.658;2.328;2023-10-08T15:08:45;9.45;;;2.17;;
70549;SDS011;58101;48.658;2.328;2023-10-08T15:11:11;11.27;;;2.40;;
70549;SDS011;58101;48.658;2.328;2023-10-08T15:13:37;8.18;;;2.00;;
70549;SDS011;58101;48.658;2.328;2023-10-08T15:16:04;9.00;;;2.45;;
70549;SDS011;58101;48.658;2.328;2023-10-08T15:18:30;9.95;;;2.50;;
70549;SDS011;58101;48.658;2.328;2023-10-08T15:20:57;10.80;;;2.35;;
70549;SDS011;58101;48.658;2.328;2023-10-08T15:23:23;11.07;;;2.08;;
70549;SDS011;58101;48.658;2.328;2023-10-08T15:25:52;9.93;;;2.08;;
70549;SDS011;58101;48.658;2.328;2023-10-08T15:28:18;12.07;;;2.30;;
70549;SDS011;58101;48.658;2.328;2023-10-08T15:30:44;11.23;;;2.38;;
70549;SDS011;58101;48.658;2.328;2023-10-08T15:33:11;10.90;;;2.20;;
70549;SDS011;58101;48.658;2.328;2023-10-08T15:35:37;9.85;;;2.13;;
70549;SDS011;58101;48.658;2.328;2023-10-08T15:38:05;9.52;;;2.17;;
70549;SDS011;58101;48.658;2.328;2023-10-08T15:42:58;13.95;;;2.45;;